Terminal Aerodrome Forecast
Issued by NWS Mobile, AL

Home | Current Version | Previous Version | Text Only | Print | Product List | Glossary On
Versions: 1 2 3 4 5 6 7 8 9 10 11 12 13 14 15 16 17 18 19 20 21 22 23 24 25 26 27 28
000
FTUS44 KMOB 271120
TAFMOB
TAF
KMOB 271120Z 2712/2812 00000KT P6SM OVC029
     FM271800 19010KT P6SM SCT015 BKN025
     FM272100 18008KT P6SM SCT250
     FM280600 VRB03KT P6SM OVC010=

USA.gov is the U.S. government's official web portal to all federal, state and local government web resources and services.